Time;durP1;ratioP1;P1;durP2;ratioP2;P2;SDS_P1;SDS_P2;PMS_P1;PMS_P2;Temp;Humidity;BMP_temperature;BMP_pressure;BME280_temperature;BME280_humidity;BME280_pressure;Samples;Min_cycle;Max_cycle;Signal;HPM_P1;HPM_P2
2023/11/03 00:01:31;;;;;;;6.77;1.50;;;10.60;99.90;;;;;;5070053;28;20517;-61
2023/11/03 00:03:58;;;;;;;5.17;1.50;;;10.60;99.90;;;;;;5069334;28;20426;-63
2023/11/03 00:06:24;;;;;;;3.40;1.40;;;10.60;99.90;;;;;;5066811;28;21393;-62
2023/11/03 00:08:50;;;;;;;4.83;1.40;;;10.60;99.90;;;;;;5070614;28;20424;-63
2023/11/03 00:11:16;;;;;;;2.50;1.30;;;10.50;99.90;;;;;;5070721;28;20422;-62
2023/11/03 00:13:42;;;;;;;8.07;1.67;;;10.50;99.90;;;;;;5069322;28;20426;-63
2023/11/03 00:16:08;;;;;;;3.13;2.20;;;10.60;99.90;;;;;;5068346;28;20220;-62
2023/11/03 00:18:34;;;;;;;3.90;2.00;;;10.50;99.90;;;;;;5073116;28;20422;-62
2023/11/03 00:21:03;;;;;;;8.63;2.00;;;10.50;99.90;;;;;;5070132;28;21246;-62
2023/11/03 00:23:29;;;;;;;4.17;1.73;;;10.50;99.90;;;;;;5068405;28;20184;-62
2023/11/03 00:25:55;;;;;;;3.30;1.57;;;10.60;99.90;;;;;;5069646;28;20872;-62
2023/11/03 00:28:22;;;;;;;5.60;1.30;;;10.60;99.90;;;;;;5068600;28;20651;-62
2023/11/03 00:30:48;;;;;;;3.80;1.70;;;10.60;99.90;;;;;;5069529;28;20650;-63
2023/11/03 00:33:17;;;;;;;3.77;1.20;;;10.50;99.90;;;;;;5066930;28;20455;-63
2023/11/03 00:35:43;;;;;;;5.27;1.80;;;10.60;99.90;;;;;;5072912;28;20989;-62
2023/11/03 00:38:10;;;;;;;3.53;1.77;;;10.50;99.90;;;;;;5067821;28;20605;-62
2023/11/03 00:40:35;;;;;;;3.97;1.60;;;10.50;99.90;;;;;;5068348;28;20435;-63
2023/11/03 00:43:03;;;;;;;4.60;1.40;;;10.50;99.90;;;;;;5066707;28;20486;-62
2023/11/03 00:45:29;;;;;;;4.70;1.87;;;10.40;99.90;;;;;;5068920;28;20200;-62
2023/11/03 00:47:55;;;;;;;4.70;1.40;;;10.50;99.90;;;;;;5067482;28;20815;-61
2023/11/03 00:50:21;;;;;;;2.07;1.10;;;10.50;99.90;;;;;;5067474;28;20514;-63
2023/11/03 00:52:48;;;;;;;4.63;1.37;;;10.50;99.90;;;;;;5069005;28;20430;-62
2023/11/03 00:55:15;;;;;;;3.37;0.90;;;10.50;99.90;;;;;;5066613;28;20847;-61
2023/11/03 00:57:41;;;;;;;4.17;0.93;;;10.50;99.90;;;;;;5067700;28;20423;-64
2023/11/03 01:00:12;;;;;;;2.93;0.87;;;10.60;99.90;;;;;;5068358;28;20439;-63
2023/11/03 01:02:41;;;;;;;1.10;0.80;;;10.60;99.90;;;;;;5068699;28;20536;-63
2023/11/03 01:05:10;;;;;;;7.80;1.10;;;10.60;99.90;;;;;;5067146;28;20442;-64
2023/11/03 01:07:38;;;;;;;4.83;1.00;;;10.60;99.90;;;;;;5066865;28;20440;-62
2023/11/03 01:10:08;;;;;;;1.00;0.70;;;10.60;99.90;;;;;;5067628;28;20435;-62
2023/11/03 01:12:34;;;;;;;2.20;0.80;;;10.60;99.90;;;;;;5068442;28;20415;-62
2023/11/03 01:15:05;;;;;;;2.87;0.77;;;10.60;99.90;;;;;;5069281;28;20528;-63
2023/11/03 01:17:31;;;;;;;3.27;1.03;;;10.60;99.90;;;;;;5072812;28;20275;-62
2023/11/03 01:19:57;;;;;;;1.87;1.03;;;10.60;99.90;;;;;;5070438;28;20415;-62
2023/11/03 01:22:24;;;;;;;1.67;0.63;;;10.50;99.90;;;;;;5068733;28;20427;-63
2023/11/03 01:24:52;;;;;;;3.53;0.97;;;10.60;99.90;;;;;;5068733;28;20496;-64
2023/11/03 01:27:20;;;;;;;1.70;0.90;;;10.60;99.90;;;;;;5070989;28;20458;-62
2023/11/03 01:29:46;;;;;;;2.57;0.77;;;10.60;99.90;;;;;;5069684;28;20545;-63
2023/11/03 01:32:15;;;;;;;1.47;0.87;;;10.60;99.90;;;;;;5069731;28;20434;-64
2023/11/03 01:34:41;;;;;;;3.93;0.97;;;10.60;99.90;;;;;;5068275;28;20925;-62
2023/11/03 01:37:07;;;;;;;2.67;1.00;;;10.60;99.90;;;;;;5069868;28;20430;-63
2023/11/03 01:39:33;;;;;;;5.50;1.20;;;10.60;99.90;;;;;;5066742;28;20426;-63
2023/11/03 01:41:59;;;;;;;3.17;0.90;;;10.60;99.90;;;;;;5067273;28;20932;-62
2023/11/03 01:44:24;;;;;;;2.00;0.70;;;10.50;99.90;;;;;;5065273;28;20868;-64
2023/11/03 01:46:50;;;;;;;4.90;1.00;;;10.50;99.90;;;;;;5068737;28;20709;-62
2023/11/03 01:49:17;;;;;;;3.20;0.67;;;10.60;99.90;;;;;;5069673;28;20184;-63
2023/11/03 01:51:43;;;;;;;4.70;2.70;;;10.60;99.90;;;;;;5068734;28;20177;-63
2023/11/03 01:54:10;;;;;;;2.30;0.70;;;10.50;99.90;;;;;;5067414;28;20434;-64
2023/11/03 01:56:36;;;;;;;1.40;0.70;;;10.50;99.90;;;;;;5068132;28;20458;-63
2023/11/03 01:59:04;;;;;;;4.27;1.03;;;10.50;99.90;;;;;;5069664;28;20470;-63
2023/11/03 02:01:29;;;;;;;2.00;0.90;;;10.50;99.90;;;;;;5068852;28;21410;-63
2023/11/03 02:03:55;;;;;;;2.83;0.80;;;10.60;99.90;;;;;;5067759;28;20418;-64
2023/11/03 02:06:21;;;;;;;1.80;0.70;;;10.60;99.90;;;;;;5068758;28;20549;-63
2023/11/03 02:08:47;;;;;;;1.50;0.87;;;10.60;99.90;;;;;;5068252;28;20188;-62
2023/11/03 02:11:21;;;;;;;1.40;1.17;;;10.60;99.90;;;;;;5067041;28;20216;-63
2023/11/03 02:13:47;;;;;;;1.43;0.70;;;10.60;99.90;;;;;;5067805;28;20418;-63
2023/11/03 02:16:13;;;;;;;3.63;1.00;;;10.60;99.90;;;;;;5069893;28;20528;-63
2023/11/03 02:18:39;;;;;;;2.30;1.00;;;10.60;99.90;;;;;;5069019;28;20172;-63
2023/11/03 02:21:04;;;;;;;3.00;0.90;;;10.70;99.90;;;;;;5069922;28;20256;-64
2023/11/03 02:23:33;;;;;;;1.13;0.80;;;10.70;99.90;;;;;;5067951;28;20469;-63
2023/11/03 02:25:58;;;;;;;2.53;0.77;;;10.70;99.90;;;;;;5069384;28;20199;-62
2023/11/03 02:28:25;;;;;;;2.17;0.80;;;10.70;99.90;;;;;;5066601;28;20427;-63
2023/11/03 02:30:51;;;;;;;3.07;0.90;;;10.60;99.90;;;;;;5067991;28;20199;-62
2023/11/03 02:33:16;;;;;;;1.40;0.57;;;10.60;99.90;;;;;;5068424;28;20442;-63
2023/11/03 02:35:42;;;;;;;2.20;1.07;;;10.60;99.90;;;;;;5068999;28;20671;-62
2023/11/03 02:38:08;;;;;;;1.30;0.80;;;10.50;99.90;;;;;;5069722;28;20193;-62
2023/11/03 02:40:35;;;;;;;1.60;0.83;;;10.60;99.90;;;;;;5068463;28;20473;-62
2023/11/03 02:43:00;;;;;;;3.93;1.10;;;10.50;99.90;;;;;;5065696;28;20442;-64
2023/11/03 02:45:26;;;;;;;1.00;0.90;;;10.60;99.90;;;;;;5069090;28;20810;-63
2023/11/03 02:47:52;;;;;;;2.27;1.00;;;10.60;99.90;;;;;;5068689;28;20247;-63
2023/11/03 02:50:17;;;;;;;1.77;0.80;;;10.60;99.90;;;;;;5069133;28;20184;-63
2023/11/03 02:52:43;;;;;;;2.00;0.90;;;10.60;99.90;;;;;;5067751;28;20181;-62
2023/11/03 02:55:09;;;;;;;0.97;0.60;;;10.60;99.90;;;;;;5072165;28;20717;-62
2023/11/03 02:57:34;;;;;;;1.10;0.60;;;10.50;99.90;;;;;;5068525;28;20964;-63
2023/11/03 03:00:00;;;;;;;2.10;0.70;;;10.60;99.90;;;;;;5068865;28;20214;-63
2023/11/03 03:02:26;;;;;;;1.73;1.10;;;10.60;99.90;;;;;;5068199;28;20228;-63
2023/11/03 03:04:51;;;;;;;3.07;0.80;;;10.60;99.90;;;;;;5073085;28;20181;-62
2023/11/03 03:07:17;;;;;;;3.00;1.00;;;10.60;99.90;;;;;;5072643;28;20180;-64
2023/11/03 03:09:43;;;;;;;1.33;0.93;;;10.70;99.90;;;;;;5071243;28;20192;-63
2023/11/03 03:12:09;;;;;;;1.23;0.73;;;10.70;99.90;;;;;;5072731;28;20469;-62
2023/11/03 03:14:35;;;;;;;2.10;1.10;;;10.60;99.90;;;;;;5071592;28;20877;-61
2023/11/03 03:17:00;;;;;;;3.23;0.90;;;10.60;99.90;;;;;;5072874;28;20411;-62
2023/11/03 03:19:26;;;;;;;4.00;0.87;;;10.60;99.90;;;;;;5072060;28;20696;-62
2023/11/03 03:21:52;;;;;;;1.47;0.80;;;10.50;99.90;;;;;;5070164;28;20185;-63
2023/11/03 03:24:17;;;;;;;1.73;1.00;;;10.60;99.90;;;;;;5071582;28;20222;-64
2023/11/03 03:26:43;;;;;;;1.40;0.70;;;10.60;99.90;;;;;;5069621;28;20283;-62
2023/11/03 03:29:09;;;;;;;1.00;0.60;;;10.60;99.90;;;;;;5072745;28;20583;-63
2023/11/03 03:31:34;;;;;;;1.63;0.70;;;10.60;99.90;;;;;;5071995;28;20619;-63
2023/11/03 03:34:00;;;;;;;2.77;0.70;;;10.60;99.90;;;;;;5069162;28;20226;-62
2023/11/03 03:36:26;;;;;;;3.80;0.70;;;10.60;99.90;;;;;;5072089;28;20205;-63
2023/11/03 03:38:51;;;;;;;2.30;0.83;;;10.60;99.90;;;;;;5070933;28;20706;-62
2023/11/03 03:41:17;;;;;;;2.87;0.93;;;10.60;99.90;;;;;;5070338;28;20694;-63
2023/11/03 03:43:42;;;;;;;2.67;0.70;;;10.60;99.90;;;;;;5071090;28;20615;-63
2023/11/03 03:46:08;;;;;;;1.83;0.80;;;10.60;99.90;;;;;;5075334;28;20188;-64
2023/11/03 03:48:34;;;;;;;1.77;0.67;;;10.60;99.90;;;;;;5071826;28;20181;-62
2023/11/03 03:50:59;;;;;;;2.17;0.80;;;10.60;99.90;;;;;;5071261;28;20206;-62
2023/11/03 03:53:25;;;;;;;1.50;0.70;;;10.60;99.90;;;;;;5068441;28;20180;-63
2023/11/03 03:55:51;;;;;;;3.90;0.80;;;10.60;99.90;;;;;;5071541;28;20683;-63
2023/11/03 03:58:17;;;;;;;2.07;0.80;;;10.60;99.90;;;;;;5070301;28;20487;-63
2023/11/03 04:00:42;;;;;;;2.40;1.03;;;10.70;99.90;;;;;;5070050;28;20196;-62
2023/11/03 04:03:09;;;;;;;1.93;0.90;;;10.60;99.90;;;;;;5070596;28;20184;-63
2023/11/03 04:05:35;;;;;;;3.20;0.90;;;10.60;99.90;;;;;;5071556;28;20272;-62
2023/11/03 04:08:00;;;;;;;4.40;0.70;;;10.60;99.90;;;;;;5070923;28;20430;-63
2023/11/03 04:10:26;;;;;;;2.07;0.80;;;10.60;99.90;;;;;;5071496;28;20180;-63
2023/11/03 04:12:52;;;;;;;4.50;1.03;;;10.60;99.90;;;;;;5068801;28;20193;-63
2023/11/03 04:15:17;;;;;;;4.03;1.20;;;10.60;99.90;;;;;;5068826;28;20214;-63
2023/11/03 04:17:43;;;;;;;2.77;0.90;;;10.70;99.90;;;;;;5071456;28;20856;-63
2023/11/03 04:20:09;;;;;;;2.50;1.10;;;10.70;99.90;;;;;;5071161;28;20200;-63
2023/11/03 04:22:35;;;;;;;1.47;0.90;;;10.70;99.90;;;;;;5069486;28;20208;-63
2023/11/03 04:25:01;;;;;;;4.20;1.27;;;10.70;99.90;;;;;;5069707;28;20521;-62
2023/11/03 04:27:27;;;;;;;3.47;0.93;;;10.70;99.90;;;;;;5062413;28;21082;-63
2023/11/03 04:29:52;;;;;;;2.30;0.97;;;10.70;99.90;;;;;;5070828;28;20181;-62
2023/11/03 04:32:18;;;;;;;3.20;1.10;;;10.80;99.90;;;;;;5070463;28;20612;-63
2023/11/03 04:34:44;;;;;;;2.10;0.80;;;10.70;99.90;;;;;;5070371;28;20189;-63
2023/11/03 04:37:10;;;;;;;4.40;1.70;;;10.80;99.90;;;;;;5073207;28;21554;-63
2023/11/03 04:39:36;;;;;;;3.23;1.17;;;10.70;99.90;;;;;;5070918;28;20272;-63
2023/11/03 04:42:02;;;;;;;3.13;1.10;;;10.70;99.90;;;;;;5068428;28;20453;-63
2023/11/03 04:44:27;;;;;;;3.93;1.20;;;10.70;99.90;;;;;;5069006;28;20173;-63
2023/11/03 04:46:53;;;;;;;5.63;1.20;;;10.70;99.90;;;;;;5070992;28;20447;-62
2023/11/03 04:49:20;;;;;;;1.73;0.97;;;10.70;99.90;;;;;;5068668;28;20213;-62
2023/11/03 04:51:45;;;;;;;3.20;1.20;;;10.80;99.90;;;;;;5070582;28;20438;-63
2023/11/03 04:54:12;;;;;;;2.97;1.30;;;10.70;99.90;;;;;;5068564;28;20434;-63
2023/11/03 04:56:38;;;;;;;3.07;1.27;;;10.70;99.90;;;;;;5070368;28;20697;-64
2023/11/03 04:59:05;;;;;;;2.07;1.40;;;10.70;99.90;;;;;;5069526;28;20531;-63
2023/11/03 05:01:33;;;;;;;2.70;1.50;;;10.70;99.90;;;;;;5070099;28;20533;-63
2023/11/03 05:03:59;;;;;;;5.13;1.60;;;10.70;99.90;;;;;;5063351;28;20497;-63
2023/11/03 05:06:25;;;;;;;1.87;1.00;;;10.70;99.90;;;;;;5067903;28;20543;-62
2023/11/03 05:08:51;;;;;;;2.50;1.50;;;10.70;99.90;;;;;;5067731;28;20447;-63
2023/11/03 05:11:16;;;;;;;7.30;1.57;;;10.70;99.90;;;;;;5064298;28;20521;-62
2023/11/03 05:13:44;;;;;;;3.10;1.30;;;10.70;99.90;;;;;;5065574;28;20354;-62
2023/11/03 05:16:11;;;;;;;3.40;1.17;;;10.70;99.90;;;;;;5068391;28;20212;-63
2023/11/03 05:18:38;;;;;;;3.03;1.10;;;10.70;99.90;;;;;;5069182;28;20435;-63
2023/11/03 05:21:04;;;;;;;5.37;1.27;;;10.60;99.90;;;;;;5067798;28;20472;-62
2023/11/03 05:23:30;;;;;;;3.83;1.20;;;10.60;99.90;;;;;;5067458;28;20441;-62
2023/11/03 05:25:56;;;;;;;2.40;1.40;;;10.50;99.90;;;;;;5067020;28;20435;-63
2023/11/03 05:28:22;;;;;;;3.47;1.23;;;10.60;99.90;;;;;;5065552;28;20185;-61
2023/11/03 05:30:48;;;;;;;7.43;1.60;;;10.60;99.90;;;;;;5069239;28;20874;-62
2023/11/03 05:33:17;;;;;;;2.33;1.77;;;10.60;99.90;;;;;;5065235;28;20224;-63
2023/11/03 05:35:46;;;;;;;1.40;1.00;;;10.60;99.90;;;;;;5067973;28;20467;-63
2023/11/03 05:38:12;;;;;;;5.30;1.43;;;10.60;99.90;;;;;;5068387;28;20431;-63
2023/11/03 05:40:38;;;;;;;5.60;1.70;;;10.60;99.90;;;;;;5067808;28;20448;-63
2023/11/03 05:43:04;;;;;;;4.40;1.43;;;10.60;99.90;;;;;;5062906;28;20806;-63
2023/11/03 05:45:29;;;;;;;6.63;2.33;;;10.60;99.90;;;;;;5064455;28;20449;-62
2023/11/03 05:47:55;;;;;;;2.97;1.70;;;10.60;99.90;;;;;;5067389;28;20185;-63
2023/11/03 05:50:21;;;;;;;6.30;1.47;;;10.60;99.90;;;;;;5066711;28;20210;-62
2023/11/03 05:52:46;;;;;;;3.50;1.47;;;10.60;99.90;;;;;;5066398;28;20492;-64
2023/11/03 05:55:12;;;;;;;4.63;2.60;;;10.60;99.90;;;;;;5065852;28;20228;-62
2023/11/03 05:57:38;;;;;;;3.10;1.23;;;10.60;99.90;;;;;;5067924;28;20546;-63
2023/11/03 06:00:11;;;;;;;5.60;1.30;;;10.70;99.90;;;;;;5068786;28;20304;-63
2023/11/03 06:02:37;;;;;;;5.90;2.20;;;10.70;99.90;;;;;;5069754;28;20186;-61
2023/11/03 06:05:04;;;;;;;5.37;1.53;;;10.70;99.90;;;;;;5070075;28;20780;-62
2023/11/03 06:07:30;;;;;;;7.90;1.97;;;10.70;99.90;;;;;;5066784;28;20439;-62
2023/11/03 06:09:56;;;;;;;4.57;1.77;;;10.70;99.90;;;;;;5068620;28;20808;-63
2023/11/03 06:12:22;;;;;;;1.80;1.20;;;10.60;99.90;;;;;;5066468;28;20863;-63
2023/11/03 06:14:47;;;;;;;3.70;1.90;;;10.60;99.90;;;;;;5065953;28;20454;-63
2023/11/03 06:17:13;;;;;;;7.67;1.40;;;10.60;99.90;;;;;;5067994;28;20193;-63
2023/11/03 06:19:39;;;;;;;4.53;1.50;;;10.70;99.90;;;;;;5069392;28;20279;-62
2023/11/03 06:22:05;;;;;;;10.23;3.53;;;10.60;99.90;;;;;;5068193;28;20250;-63
2023/11/03 06:24:30;;;;;;;8.20;1.60;;;10.60;99.90;;;;;;5066270;28;20187;-62
2023/11/03 06:26:59;;;;;;;3.73;1.57;;;10.60;99.90;;;;;;5071747;28;20422;-63
2023/11/03 06:29:27;;;;;;;4.27;1.27;;;10.60;99.90;;;;;;5068033;28;20188;-63
2023/11/03 06:31:53;;;;;;;4.47;2.10;;;10.60;99.90;;;;;;5072418;28;20932;-63
2023/11/03 06:34:19;;;;;;;5.90;2.00;;;10.60;99.90;;;;;;5066854;28;20445;-62
2023/11/03 06:36:45;;;;;;;10.93;1.87;;;10.60;99.90;;;;;;5068028;28;20809;-63
2023/11/03 06:39:11;;;;;;;5.60;1.80;;;10.60;99.90;;;;;;5066676;28;20432;-62
2023/11/03 06:41:36;;;;;;;3.43;1.23;;;10.60;99.90;;;;;;5065681;28;20187;-62
2023/11/03 06:44:05;;;;;;;8.13;2.17;;;10.60;99.90;;;;;;5071420;28;20933;-63
2023/11/03 06:46:31;;;;;;;3.97;1.50;;;10.60;99.90;;;;;;5068079;28;20855;-62
2023/11/03 06:48:57;;;;;;;4.13;1.83;;;10.50;99.90;;;;;;5068877;28;21176;-62
2023/11/03 06:51:22;;;;;;;6.50;2.70;;;10.50;99.90;;;;;;5066941;28;20968;-62
2023/11/03 06:53:48;;;;;;;7.23;1.93;;;10.50;99.90;;;;;;5066112;28;20767;-63
2023/11/03 06:56:14;;;;;;;6.80;1.50;;;10.50;99.90;;;;;;5064237;28;20240;-61
2023/11/03 06:58:39;;;;;;;4.10;1.37;;;10.50;99.90;;;;;;5068229;28;20226;-62
2023/11/03 07:01:05;;;;;;;5.07;2.13;;;10.50;99.90;;;;;;5066543;28;20225;-63
2023/11/03 07:03:32;;;;;;;5.83;1.63;;;10.50;99.90;;;;;;5064348;28;20205;-61
2023/11/03 07:06:00;;;;;;;3.10;1.20;;;10.50;99.90;;;;;;5067937;28;20200;-63
2023/11/03 07:08:26;;;;;;;3.93;1.43;;;10.60;99.90;;;;;;5067281;28;20470;-63
2023/11/03 07:10:51;;;;;;;5.63;1.40;;;10.60;99.90;;;;;;5064744;28;20517;-61
2023/11/03 07:13:17;;;;;;;4.20;1.43;;;10.50;99.90;;;;;;5063627;28;20609;-62
2023/11/03 07:15:43;;;;;;;8.10;1.70;;;10.50;99.90;;;;;;5064086;28;20212;-65
2023/11/03 07:18:09;;;;;;;6.33;2.70;;;10.60;99.90;;;;;;5070628;28;20196;-62
2023/11/03 07:20:35;;;;;;;4.60;1.80;;;10.50;99.90;;;;;;5065528;28;20447;-63
2023/11/03 07:23:01;;;;;;;10.80;2.00;;;10.60;99.90;;;;;;5062910;28;20439;-62
2023/11/03 07:25:27;;;;;;;3.17;1.63;;;10.70;99.90;;;;;;5064220;28;20442;-62
2023/11/03 07:27:52;;;;;;;4.50;1.43;;;10.80;99.90;;;;;;5065058;28;20215;-61
2023/11/03 07:30:19;;;;;;;5.40;1.73;;;11.00;99.90;;;;;;5069628;28;20180;-63
2023/11/03 07:32:45;;;;;;;5.03;1.70;;;11.00;99.90;;;;;;5065503;28;20188;-63
2023/11/03 07:35:11;;;;;;;6.50;2.63;;;11.10;99.90;;;;;;5064269;28;20478;-62
2023/11/03 07:37:37;;;;;;;6.33;1.87;;;11.20;99.90;;;;;;5065624;28;20479;-62
2023/11/03 07:40:05;;;;;;;10.00;1.87;;;11.30;99.90;;;;;;5063922;28;20549;-62
2023/11/03 07:42:31;;;;;;;4.17;1.40;;;11.40;99.90;;;;;;5063213;28;20451;-62
2023/11/03 07:44:57;;;;;;;5.53;1.50;;;11.50;99.90;;;;;;5066241;28;20852;-64
2023/11/03 07:47:22;;;;;;;6.70;1.83;;;11.60;99.90;;;;;;5068262;28;20506;-63
2023/11/03 07:49:49;;;;;;;2.97;1.20;;;11.60;99.90;;;;;;5067782;28;20275;-64
2023/11/03 07:52:16;;;;;;;6.47;1.60;;;11.50;99.90;;;;;;5069897;28;20912;-63
2023/11/03 07:54:43;;;;;;;5.00;1.47;;;11.70;99.90;;;;;;5069547;28;20871;-62
2023/11/03 07:57:08;;;;;;;3.13;1.40;;;11.80;99.90;;;;;;5070547;28;20438;-63
2023/11/03 07:59:35;;;;;;;4.20;1.50;;;12.00;99.90;;;;;;5071190;28;20780;-62
2023/11/03 08:02:04;;;;;;;5.43;1.33;;;12.10;99.90;;;;;;5072662;28;20973;-63
2023/11/03 08:04:30;;;;;;;4.07;1.50;;;12.20;99.90;;;;;;5070862;28;20430;-63
2023/11/03 08:06:57;;;;;;;4.67;1.27;;;12.40;99.90;;;;;;5071826;28;20427;-63
2023/11/03 08:09:22;;;;;;;6.60;1.27;;;12.50;99.90;;;;;;5069110;28;20276;-63
2023/11/03 08:11:48;;;;;;;5.43;1.40;;;12.60;99.90;;;;;;5071211;28;20421;-62
2023/11/03 08:14:14;;;;;;;3.10;1.20;;;12.50;99.90;;;;;;5074616;28;20189;-63
2023/11/03 08:16:44;;;;;;;4.77;1.60;;;12.40;99.90;;;;;;5071133;28;20207;-62
2023/11/03 08:19:11;;;;;;;2.50;1.30;;;12.40;99.90;;;;;;5072007;28;20816;-63
2023/11/03 08:21:41;;;;;;;4.33;1.20;;;12.50;99.90;;;;;;5070149;28;20492;-64
2023/11/03 08:24:12;;;;;;;2.60;1.10;;;12.60;99.90;;;;;;5070311;28;20433;-63
2023/11/03 08:26:39;;;;;;;4.43;1.50;;;12.50;99.90;;;;;;5070528;28;20422;-63
2023/11/03 08:29:05;;;;;;;7.13;1.43;;;12.40;99.90;;;;;;5070028;28;20430;-62
2023/11/03 08:31:31;;;;;;;5.70;1.20;;;12.30;99.90;;;;;;5071087;28;20501;-64
2023/11/03 08:33:56;;;;;;;6.53;1.33;;;12.10;99.90;;;;;;5069904;28;20513;-62
2023/11/03 08:36:23;;;;;;;4.97;1.63;;;12.00;99.90;;;;;;5070894;28;20212;-62
2023/11/03 08:38:51;;;;;;;3.60;1.63;;;12.00;99.90;;;;;;5074326;28;20204;-63
2023/11/03 08:41:19;;;;;;;4.17;1.20;;;12.00;99.90;;;;;;5070014;28;21423;-64
2023/11/03 08:43:46;;;;;;;3.83;1.40;;;12.10;99.90;;;;;;5069446;28;20463;-62
2023/11/03 08:46:12;;;;;;;5.33;1.20;;;12.10;99.90;;;;;;5068927;28;20875;-62
2023/11/03 08:48:41;;;;;;;7.13;1.80;;;12.10;99.90;;;;;;5070031;28;20522;-62
2023/11/03 08:51:08;;;;;;;6.80;1.70;;;12.10;99.90;;;;;;5069737;28;20426;-64
2023/11/03 08:53:33;;;;;;;5.13;1.40;;;12.10;99.90;;;;;;5069874;28;20431;-62
2023/11/03 08:55:59;;;;;;;2.47;1.33;;;12.20;99.90;;;;;;5070178;28;20462;-63
2023/11/03 08:58:25;;;;;;;2.60;1.17;;;12.10;99.90;;;;;;5069257;28;20206;-61
2023/11/03 09:00:54;;;;;;;6.30;1.23;;;12.00;99.90;;;;;;5070419;28;20193;-63
2023/11/03 09:03:20;;;;;;;7.30;1.87;;;11.90;99.90;;;;;;5066041;28;20423;-63
2023/11/03 09:05:47;;;;;;;4.20;1.20;;;11.90;99.90;;;;;;5069953;28;20438;-63
2023/11/03 09:08:13;;;;;;;2.90;1.37;;;11.80;99.90;;;;;;5066755;28;20763;-63
2023/11/03 09:10:39;;;;;;;4.17;1.10;;;11.80;99.90;;;;;;5060994;28;20949;-63
2023/11/03 09:13:05;;;;;;;6.20;1.57;;;11.80;99.90;;;;;;5068447;28;20439;-62
2023/11/03 09:15:30;;;;;;;3.60;1.50;;;11.70;99.90;;;;;;5070036;28;20219;-62
2023/11/03 09:17:57;;;;;;;4.07;1.77;;;11.70;99.90;;;;;;5066764;28;20234;-62
2023/11/03 09:20:23;;;;;;;8.23;2.73;;;11.60;99.90;;;;;;5069945;28;20180;-62
2023/11/03 09:22:49;;;;;;;3.80;1.33;;;11.60;99.90;;;;;;5066489;28;20833;-63
2023/11/03 09:25:15;;;;;;;4.37;1.37;;;11.50;99.90;;;;;;5069833;28;20200;-63
2023/11/03 09:27:41;;;;;;;3.10;1.40;;;11.50;99.90;;;;;;5070174;28;20797;-63
2023/11/03 09:30:10;;;;;;;5.30;1.80;;;11.40;99.90;;;;;;5066797;28;21480;-62
2023/11/03 09:32:40;;;;;;;3.10;1.97;;;11.40;99.90;;;;;;5068187;28;20443;-63
2023/11/03 09:35:07;;;;;;;7.17;1.60;;;11.40;99.90;;;;;;5067862;28;20471;-63
2023/11/03 09:37:34;;;;;;;4.13;1.90;;;11.40;99.90;;;;;;5066458;28;20490;-62
2023/11/03 09:40:01;;;;;;;5.70;1.57;;;11.40;99.90;;;;;;5068962;28;20430;-63
2023/11/03 09:42:27;;;;;;;4.77;1.40;;;11.40;99.90;;;;;;5067890;28;20479;-62
2023/11/03 09:44:53;;;;;;;3.20;1.80;;;11.40;99.90;;;;;;5067870;28;20558;-61
2023/11/03 09:47:19;;;;;;;7.43;1.80;;;11.40;99.90;;;;;;5072289;28;20417;-62
2023/11/03 09:49:45;;;;;;;4.03;1.60;;;11.40;99.90;;;;;;5068333;28;20212;-63
2023/11/03 09:52:13;;;;;;;2.37;1.20;;;11.30;99.90;;;;;;5068324;28;20438;-62
2023/11/03 09:54:39;;;;;;;6.27;2.70;;;11.30;99.90;;;;;;5067895;28;20430;-63
2023/11/03 09:57:08;;;;;;;5.00;2.03;;;11.30;99.90;;;;;;5067720;28;20531;-62
2023/11/03 09:59:35;;;;;;;5.10;2.20;;;11.30;99.90;;;;;;5073063;28;20821;-64
2023/11/03 10:02:09;;;;;;;7.00;2.60;;;11.30;99.90;;;;;;5068219;28;20514;-62
2023/11/03 10:04:39;;;;;;;5.60;1.80;;;11.40;99.90;;;;;;5067687;28;20428;-63
2023/11/03 10:07:06;;;;;;;4.97;1.70;;;11.40;99.90;;;;;;5064759;28;20428;-61
2023/11/03 10:09:32;;;;;;;3.47;1.87;;;11.40;99.90;;;;;;5066677;28;20427;-63
2023/11/03 10:11:59;;;;;;;4.00;1.77;;;11.40;99.90;;;;;;5063497;28;20445;-63
2023/11/03 10:14:25;;;;;;;3.93;1.40;;;11.30;99.90;;;;;;5067667;28;20425;-61
2023/11/03 10:16:51;;;;;;;5.50;1.60;;;11.30;99.90;;;;;;5069052;28;20470;-61
2023/11/03 10:19:19;;;;;;;6.00;2.07;;;11.40;99.90;;;;;;5065580;28;20465;-64
2023/11/03 10:21:47;;;;;;;4.93;1.53;;;11.40;99.90;;;;;;5068799;28;20451;-64
2023/11/03 10:24:15;;;;;;;5.20;1.40;;;11.50;99.90;;;;;;5063954;28;20455;-62
2023/11/03 10:26:41;;;;;;;5.97;1.90;;;11.60;99.90;;;;;;5068796;28;20992;-64
2023/11/03 10:29:07;;;;;;;6.60;2.27;;;11.70;99.90;;;;;;5071054;28;20975;-64
2023/11/03 10:31:33;;;;;;;6.67;2.10;;;11.80;99.90;;;;;;5068446;28;20523;-63
2023/11/03 10:33:58;;;;;;;5.30;1.77;;;11.90;99.90;;;;;;5067024;28;20521;-64
2023/11/03 10:36:26;;;;;;;7.63;1.93;;;11.90;99.90;;;;;;5066999;28;20690;-64
2023/11/03 10:38:54;;;;;;;7.63;1.67;;;12.00;99.90;;;;;;5069071;28;20195;-63
2023/11/03 10:41:20;;;;;;;7.07;2.17;;;12.10;99.90;;;;;;5068712;28;20420;-63
2023/11/03 10:43:57;;;;;;;4.10;1.70;;;12.20;99.90;;;;;;5067513;28;20438;-63
2023/11/03 10:46:30;;;;;;;4.83;1.70;;;12.30;99.90;;;;;;5070590;28;20422;-64
2023/11/03 10:49:07;;;;;;;8.17;2.27;;;12.40;99.90;;;;;;5067988;28;20465;-63
2023/11/03 10:51:39;;;;;;;5.60;1.70;;;12.50;99.90;;;;;;5068805;28;20461;-63
2023/11/03 10:54:17;;;;;;;5.00;1.97;;;12.60;99.90;;;;;;5077903;28;21008;-63
2023/11/03 10:56:44;;;;;;;4.53;1.50;;;12.70;99.90;;;;;;5068270;28;20557;-62
2023/11/03 10:59:10;;;;;;;14.00;2.93;;;12.70;99.90;;;;;;5066902;28;20433;-64
2023/11/03 11:01:48;;;;;;;8.17;1.90;;;12.70;99.90;;;;;;5068597;28;21323;-62
2023/11/03 11:04:21;;;;;;;2.77;1.40;;;12.80;99.90;;;;;;5069159;28;20510;-62
2023/11/03 11:07:00;;;;;;;5.47;1.80;;;12.80;99.90;;;;;;5068427;28;20455;-62
2023/11/03 11:09:52;;;;;;;9.00;2.53;;;12.80;99.90;;;;;;5049823;28;20946;-62
2023/11/03 11:12:18;;;;;;;5.53;1.60;;;12.80;99.90;;;;;;5066448;28;20496;-63
2023/11/03 11:14:43;;;;;;;6.30;1.97;;;12.80;99.90;;;;;;5067760;28;21130;-64
2023/11/03 11:17:15;;;;;;;4.63;2.00;;;12.80;99.90;;;;;;5069471;28;20216;-64
2023/11/03 11:19:45;;;;;;;4.93;2.07;;;12.80;99.90;;;;;;5068490;28;20423;-64
2023/11/03 11:22:18;;;;;;;4.80;1.70;;;12.80;99.90;;;;;;5066508;28;20434;-63
2023/11/03 11:24:45;;;;;;;7.60;1.53;;;12.90;99.90;;;;;;5066795;28;20427;-63
2023/11/03 11:27:19;;;;;;;3.67;1.50;;;12.90;99.90;;;;;;5070747;28;20432;-64
2023/11/03 11:29:50;;;;;;;4.57;2.07;;;12.90;99.90;;;;;;5071441;28;20495;-64
2023/11/03 11:32:17;;;;;;;5.23;1.73;;;13.10;99.90;;;;;;5067040;28;20452;-64
2023/11/03 11:34:44;;;;;;;7.87;2.30;;;13.10;99.90;;;;;;5070667;28;20437;-64
2023/11/03 11:37:24;;;;;;;10.50;2.13;;;13.10;99.90;;;;;;5068192;28;20480;-64
2023/11/03 11:39:53;;;;;;;4.17;1.87;;;13.10;99.90;;;;;;5070771;28;20428;-62
2023/11/03 11:42:20;;;;;;;6.43;1.80;;;13.10;99.90;;;;;;5068245;28;20465;-62
2023/11/03 11:44:52;;;;;;;7.67;1.83;;;13.10;99.90;;;;;;5070864;28;20427;-63
2023/11/03 11:47:23;;;;;;;9.90;1.67;;;13.20;99.90;;;;;;5070766;28;20948;-63
2023/11/03 11:49:49;;;;;;;4.60;1.80;;;13.30;99.90;;;;;;5072286;28;20431;-64
2023/11/03 11:52:15;;;;;;;4.47;1.67;;;13.30;99.90;;;;;;5068891;28;20427;-63
2023/11/03 11:54:41;;;;;;;6.50;1.70;;;13.40;99.90;;;;;;5073810;28;20426;-63
2023/11/03 11:57:07;;;;;;;9.87;2.23;;;13.30;99.90;;;;;;5071368;28;20529;-63
2023/11/03 11:59:35;;;;;;;5.03;1.40;;;13.30;99.90;;;;;;5070338;28;20181;-62
2023/11/03 12:02:02;;;;;;;9.00;1.97;;;13.30;99.90;;;;;;5070564;28;20434;-66
2023/11/03 12:04:28;;;;;;;2.57;1.20;;;13.30;99.90;;;;;;5068084;28;20779;-64
2023/11/03 12:06:55;;;;;;;6.57;2.07;;;13.30;99.90;;;;;;5074971;28;20430;-65
2023/11/03 12:09:21;;;;;;;9.17;2.07;;;13.30;99.90;;;;;;5069651;28;20509;-64
2023/11/03 12:11:46;;;;;;;4.93;1.73;;;13.50;99.90;;;;;;5074488;28;20531;-63
2023/11/03 12:14:13;;;;;;;4.83;2.00;;;13.60;99.90;;;;;;5069855;28;20196;-63
2023/11/03 12:16:38;;;;;;;8.53;2.33;;;13.60;99.90;;;;;;5070012;28;20228;-64
2023/11/03 12:19:04;;;;;;;5.87;1.60;;;13.70;99.90;;;;;;5069748;28;20431;-62
2023/11/03 12:21:30;;;;;;;9.27;1.83;;;13.70;99.90;;;;;;5070261;28;20180;-63
2023/11/03 12:23:58;;;;;;;5.43;2.73;;;13.70;99.90;;;;;;5067857;28;20455;-62
2023/11/03 12:26:27;;;;;;;9.00;2.00;;;13.60;99.90;;;;;;5070097;28;20432;-63
2023/11/03 12:29:15;;;;;;;9.27;3.00;;;13.50;99.90;;;;;;5070391;28;20427;-62
2023/11/03 12:31:41;;;;;;;6.87;2.13;;;13.50;99.90;;;;;;5069220;28;20444;-63
2023/11/03 12:34:08;;;;;;;6.20;2.10;;;13.50;99.90;;;;;;5069194;28;20435;-63
2023/11/03 12:36:34;;;;;;;9.40;2.07;;;13.40;99.90;;;;;;5068552;28;20944;-64
2023/11/03 12:39:01;;;;;;;3.97;1.43;;;13.50;99.90;;;;;;5068279;28;20431;-64
2023/11/03 12:41:26;;;;;;;11.50;1.73;;;13.30;99.90;;;;;;5066624;28;20193;-64
2023/11/03 12:43:58;;;;;;;8.63;1.50;;;13.30;99.90;;;;;;5069671;28;20499;-63